Time;durP1;ratioP1;P1;durP2;ratioP2;P2;SDS_P1;SDS_P2;PMS_P1;PMS_P2;Temp;Humidity;BMP_temperature;BMP_pressure;BME280_temperature;BME280_humidity;BME280_pressure;Samples;Min_cycle;Max_cycle;Signal;HPM_P1;HPM_P2
2023/12/02 00:01:50;;;;;;;29.83;16.30;;;-0.70;99.90;;;;;;5077274;28;20090;-69
2023/12/02 00:04:17;;;;;;;27.65;16.95;;;-0.80;99.90;;;;;;5077397;28;20488;-71
2023/12/02 00:06:43;;;;;;;32.17;18.70;;;-0.70;99.90;;;;;;5076832;28;20056;-70
2023/12/02 00:09:10;;;;;;;31.38;18.40;;;-0.70;99.90;;;;;;5077131;28;20048;-70
2023/12/02 00:11:37;;;;;;;29.77;16.17;;;-0.70;99.90;;;;;;5077301;28;20052;-69
2023/12/02 00:14:04;;;;;;;33.30;17.85;;;-0.70;99.90;;;;;;5094453;28;20123;-69
2023/12/02 00:16:31;;;;;;;34.10;16.77;;;-0.70;99.90;;;;;;5076926;28;20044;-69
2023/12/02 00:18:59;;;;;;;29.70;17.73;;;-0.70;99.90;;;;;;5095110;28;20108;-69
2023/12/02 00:21:26;;;;;;;29.98;16.80;;;-0.70;99.90;;;;;;5093121;28;20070;-69
2023/12/02 00:23:53;;;;;;;33.25;18.75;;;-0.70;99.90;;;;;;5096117;28;20400;-70
2023/12/02 00:26:20;;;;;;;33.72;17.50;;;-0.70;99.90;;;;;;5096163;28;20052;-69
2023/12/02 00:28:47;;;;;;;32.03;17.75;;;-0.70;99.90;;;;;;5095277;28;20044;-69
2023/12/02 00:31:14;;;;;;;30.48;18.00;;;-0.70;99.90;;;;;;5096042;28;20043;-70
2023/12/02 00:33:40;;;;;;;33.13;17.50;;;-0.60;99.90;;;;;;5095033;28;20059;-69
2023/12/02 00:36:10;;;;;;;26.35;16.15;;;-0.60;99.90;;;;;;5095625;28;20097;-69
2023/12/02 00:38:37;;;;;;;28.20;16.25;;;-0.60;99.90;;;;;;5094719;28;20051;-69
2023/12/02 00:41:04;;;;;;;33.47;17.50;;;-0.60;99.90;;;;;;5076772;28;20056;-71
2023/12/02 00:43:31;;;;;;;27.05;15.00;;;-0.60;99.90;;;;;;5076258;28;20047;-70
2023/12/02 00:45:57;;;;;;;33.75;18.27;;;-0.60;99.90;;;;;;5076614;28;20462;-71
2023/12/02 00:48:24;;;;;;;29.60;18.13;;;-0.60;99.90;;;;;;5076209;28;20550;-70
2023/12/02 00:50:51;;;;;;;30.25;17.83;;;-0.60;99.90;;;;;;5076451;28;20052;-69
2023/12/02 00:53:19;;;;;;;32.63;18.88;;;-0.60;99.90;;;;;;5076554;28;20048;-70
2023/12/02 00:55:46;;;;;;;27.00;16.67;;;-0.60;99.90;;;;;;5093851;28;20052;-70
2023/12/02 00:58:13;;;;;;;30.13;17.05;;;-0.60;99.90;;;;;;5076260;28;20051;-70
2023/12/02 01:00:40;;;;;;;30.40;16.90;;;-0.70;99.90;;;;;;5075685;28;20048;-70
2023/12/02 01:03:07;;;;;;;32.38;18.38;;;-0.70;99.90;;;;;;5075620;28;20052;-70
2023/12/02 01:05:34;;;;;;;32.00;17.33;;;-0.70;99.90;;;;;;5076277;28;20052;-70
2023/12/02 01:08:01;;;;;;;29.27;17.58;;;-0.70;99.90;;;;;;5076165;28;20060;-70
2023/12/02 01:10:29;;;;;;;28.30;17.13;;;-0.70;99.90;;;;;;5075468;28;20048;-70
2023/12/02 01:12:56;;;;;;;33.60;18.02;;;-0.70;99.90;;;;;;5076096;28;20385;-71
2023/12/02 01:15:23;;;;;;;30.52;17.73;;;-0.70;99.90;;;;;;5093979;28;20117;-70
2023/12/02 01:17:49;;;;;;;34.88;18.48;;;-0.70;99.90;;;;;;5075576;28;20492;-72
2023/12/02 01:20:16;;;;;;;27.88;16.15;;;-0.70;99.90;;;;;;5093717;28;20043;-71
2023/12/02 01:22:43;;;;;;;27.33;16.80;;;-0.70;99.90;;;;;;5075726;28;20048;-70
2023/12/02 01:25:10;;;;;;;32.55;17.73;;;-0.70;99.90;;;;;;5074985;28;20051;-71
2023/12/02 01:27:38;;;;;;;33.60;18.23;;;-0.70;99.90;;;;;;5075609;28;20048;-70
2023/12/02 01:30:06;;;;;;;30.52;18.20;;;-0.70;99.90;;;;;;5075622;28;20044;-71
2023/12/02 01:32:33;;;;;;;32.75;17.70;;;-0.70;99.90;;;;;;5075124;28;20090;-71
2023/12/02 01:35:00;;;;;;;29.25;16.13;;;-0.30;99.90;;;;;;5075599;28;20055;-71
2023/12/02 01:37:27;;;;;;;28.13;15.90;;;-0.70;99.90;;;;;;5075660;28;20048;-70
2023/12/02 01:39:54;;;;;;;27.48;16.02;;;-0.70;99.90;;;;;;5074914;28;20055;-70
2023/12/02 01:42:21;;;;;;;32.33;16.65;;;-0.70;99.90;;;;;;5075472;28;20048;-70
2023/12/02 01:44:49;;;;;;;35.63;17.50;;;-0.70;99.90;;;;;;5074871;28;20048;-69
2023/12/02 01:47:16;;;;;;;31.50;17.85;;;-0.70;99.90;;;;;;5075553;28;20506;-71
2023/12/02 01:49:45;;;;;;;39.63;18.02;;;-0.70;99.90;;;;;;5075168;28;20052;-70
2023/12/02 01:52:12;;;;;;;29.58;17.00;;;-0.70;99.90;;;;;;5074805;28;20052;-71
2023/12/02 01:54:39;;;;;;;29.83;18.02;;;-0.70;99.90;;;;;;5094334;28;20047;-71
2023/12/02 01:57:07;;;;;;;29.98;17.08;;;-0.70;99.90;;;;;;5094375;28;20056;-71
2023/12/02 01:59:34;;;;;;;30.85;16.85;;;-0.80;99.90;;;;;;5074712;28;20056;-70
2023/12/02 02:02:02;;;;;;;34.83;17.42;;;-0.80;99.90;;;;;;5075061;28;20085;-70
2023/12/02 02:04:29;;;;;;;30.30;16.23;;;-0.80;99.90;;;;;;5075203;28;20048;-71
2023/12/02 02:06:56;;;;;;;30.85;17.65;;;-0.80;99.90;;;;;;5074340;28;20047;-70
2023/12/02 02:09:23;;;;;;;28.42;17.35;;;-0.80;99.90;;;;;;5092955;28;20408;-68
2023/12/02 02:11:50;;;;;;;27.58;17.35;;;-0.80;99.90;;;;;;5093131;28;20431;-70
2023/12/02 02:14:17;;;;;;;29.65;18.30;;;-0.90;99.90;;;;;;5074579;28;20455;-69
2023/12/02 02:16:43;;;;;;;29.83;17.65;;;-0.90;99.90;;;;;;5075088;28;20473;-69
2023/12/02 02:19:12;;;;;;;33.45;17.45;;;-0.90;99.90;;;;;;5074912;28;20442;-70
2023/12/02 02:21:40;;;;;;;26.90;17.10;;;-0.90;99.90;;;;;;5073748;28;20121;-68
2023/12/02 02:24:07;;;;;;;27.10;16.20;;;-0.90;99.90;;;;;;5075022;28;20051;-69
2023/12/02 02:26:34;;;;;;;31.30;18.23;;;-1.00;99.90;;;;;;5074848;28;20541;-68
2023/12/02 02:29:01;;;;;;;30.42;18.80;;;-1.10;99.90;;;;;;5074367;28;20044;-68
2023/12/02 02:31:28;;;;;;;32.38;18.42;;;-1.10;99.90;;;;;;5074779;28;20708;-69
2023/12/02 02:33:55;;;;;;;30.33;16.15;;;-1.10;99.90;;;;;;5092078;28;20051;-69
2023/12/02 02:36:21;;;;;;;31.00;17.63;;;-1.20;99.90;;;;;;5074487;28;20055;-70
2023/12/02 02:38:50;;;;;;;31.27;17.40;;;-1.20;99.90;;;;;;5074593;28;20048;-69
2023/12/02 02:41:17;;;;;;;31.23;17.05;;;-1.20;99.90;;;;;;5074229;28;20052;-68
2023/12/02 02:43:43;;;;;;;28.33;16.23;;;-1.20;99.90;;;;;;5074709;28;20577;-69
2023/12/02 02:46:10;;;;;;;29.08;16.88;;;-1.30;99.90;;;;;;5091161;28;20105;-69
2023/12/02 02:48:37;;;;;;;33.28;17.42;;;-1.30;99.90;;;;;;5093064;28;20047;-69
2023/12/02 02:51:04;;;;;;;29.77;16.98;;;-1.30;99.90;;;;;;5093635;28;20044;-69
2023/12/02 02:53:31;;;;;;;30.67;17.73;;;-1.30;99.90;;;;;;5111646;28;20108;-70
2023/12/02 02:55:59;;;;;;;32.60;19.05;;;-1.30;99.90;;;;;;5093690;28;20100;-70
2023/12/02 02:58:29;;;;;;;32.50;18.33;;;-1.30;99.90;;;;;;5097760;28;20156;-70
2023/12/02 03:00:56;;;;;;;32.05;17.08;;;-1.40;99.90;;;;;;5097240;28;20048;-70
2023/12/02 03:03:23;;;;;;;28.60;18.10;;;-1.30;99.90;;;;;;5096890;28;20088;-70
2023/12/02 03:05:50;;;;;;;29.23;16.35;;;-1.40;99.90;;;;;;5115572;28;20126;-70
2023/12/02 03:08:17;;;;;;;30.55;18.33;;;-1.40;99.90;;;;;;5097704;28;20380;-70
2023/12/02 03:10:44;;;;;;;32.25;18.20;;;-1.40;99.90;;;;;;5096702;28;20044;-69
2023/12/02 03:13:12;;;;;;;35.55;18.08;;;-1.40;99.90;;;;;;5115662;28;20105;-68
2023/12/02 03:15:39;;;;;;;30.98;17.38;;;-1.40;99.90;;;;;;5078287;28;20055;-69
2023/12/02 03:18:06;;;;;;;30.63;17.50;;;-2.10;99.90;;;;;;5077400;28;20052;-68
2023/12/02 03:20:33;;;;;;;30.10;17.55;;;-1.40;99.90;;;;;;5077833;28;20462;-70
2023/12/02 03:23:00;;;;;;;30.90;17.98;;;-1.40;99.90;;;;;;5078056;28;20043;-70
2023/12/02 03:25:27;;;;;;;34.47;18.55;;;-1.40;99.90;;;;;;5077697;28;20142;-70
2023/12/02 03:27:54;;;;;;;31.35;17.58;;;-1.40;99.90;;;;;;5096161;28;20052;-69
2023/12/02 03:30:22;;;;;;;28.48;17.23;;;-1.40;99.90;;;;;;5077468;28;20120;-69
2023/12/02 03:32:49;;;;;;;31.77;17.05;;;-1.40;99.90;;;;;;5078077;28;20048;-69
2023/12/02 03:35:16;;;;;;;29.90;18.60;;;-1.40;99.90;;;;;;5095827;28;20135;-70
2023/12/02 03:37:43;;;;;;;32.25;17.35;;;-1.40;99.90;;;;;;5077017;28;20082;-70
2023/12/02 03:40:11;;;;;;;31.83;18.40;;;-1.40;99.90;;;;;;5095772;28;20071;-70
2023/12/02 03:42:38;;;;;;;30.35;17.15;;;-1.40;99.90;;;;;;5077557;28;20556;-69
2023/12/02 03:45:06;;;;;;;32.70;18.35;;;-1.40;99.90;;;;;;5095033;28;20044;-70
2023/12/02 03:47:34;;;;;;;28.13;17.08;;;-1.50;99.90;;;;;;5077713;28;20423;-69
2023/12/02 03:50:01;;;;;;;28.48;17.00;;;-1.50;99.90;;;;;;5095812;28;20047;-69
2023/12/02 03:52:28;;;;;;;31.52;18.27;;;-1.50;99.90;;;;;;5077168;28;20048;-70
2023/12/02 03:54:55;;;;;;;33.67;18.27;;;-1.50;99.90;;;;;;5077562;28;20055;-70
2023/12/02 03:57:22;;;;;;;33.47;18.77;;;-1.50;99.90;;;;;;5077372;28;20135;-70
2023/12/02 03:59:50;;;;;;;35.25;18.27;;;-1.50;99.90;;;;;;5076937;28;20492;-70
2023/12/02 04:02:17;;;;;;;29.05;16.75;;;-1.50;99.90;;;;;;5077507;28;20044;-69
2023/12/02 04:04:45;;;;;;;32.10;18.88;;;-1.60;99.90;;;;;;5077192;28;20556;-69
2023/12/02 04:07:12;;;;;;;30.10;17.67;;;-1.60;99.90;;;;;;5076083;28;20044;-69
2023/12/02 04:09:39;;;;;;;32.40;18.23;;;-1.60;99.90;;;;;;5076441;28;20044;-69
2023/12/02 04:12:06;;;;;;;29.60;16.73;;;-1.60;99.90;;;;;;5077186;28;20052;-69
2023/12/02 04:14:33;;;;;;;28.65;16.92;;;-1.60;99.90;;;;;;5076882;28;20048;-70
2023/12/02 04:17:00;;;;;;;28.50;16.23;;;-1.60;99.90;;;;;;5077232;28;20112;-70
2023/12/02 04:19:28;;;;;;;30.40;16.75;;;-1.60;99.90;;;;;;5076780;28;20075;-69
2023/12/02 04:21:56;;;;;;;28.48;15.32;;;-1.60;99.90;;;;;;5073238;28;20091;-69
2023/12/02 04:24:24;;;;;;;32.58;17.63;;;-1.50;99.90;;;;;;5074765;28;20452;-70
2023/12/02 04:26:51;;;;;;;31.40;16.15;;;-1.60;99.90;;;;;;5072901;28;20053;-68
2023/12/02 04:29:18;;;;;;;28.35;16.85;;;-1.60;99.90;;;;;;5073700;28;20045;-70
2023/12/02 04:31:45;;;;;;;29.17;16.83;;;-1.60;99.90;;;;;;5074629;28;20051;-68
2023/12/02 04:34:12;;;;;;;31.15;17.13;;;-1.60;99.90;;;;;;5073316;28;20052;-70
2023/12/02 04:36:39;;;;;;;30.52;18.08;;;-1.60;99.90;;;;;;5074518;28;20044;-69
2023/12/02 04:39:11;;;;;;;25.10;15.30;;;-1.60;99.90;;;;;;5072969;28;20056;-69
2023/12/02 04:41:38;;;;;;;28.83;16.23;;;-1.30;99.90;;;;;;5072868;28;20045;-68
2023/12/02 04:44:05;;;;;;;30.58;17.13;;;-1.60;99.90;;;;;;5073110;28;20036;-68
2023/12/02 04:46:32;;;;;;;33.00;16.35;;;-1.60;99.90;;;;;;5074426;28;20531;-70
2023/12/02 04:49:00;;;;;;;30.20;17.23;;;-1.60;99.90;;;;;;5072957;28;20052;-69
2023/12/02 04:51:27;;;;;;;28.88;16.33;;;-1.60;99.90;;;;;;5073231;28;20138;-70
2023/12/02 04:53:54;;;;;;;31.15;17.45;;;-1.60;99.90;;;;;;5074195;28;20470;-69
2023/12/02 04:56:22;;;;;;;28.83;17.17;;;-1.60;99.90;;;;;;5073724;28;20462;-71
2023/12/02 04:58:49;;;;;;;27.45;16.15;;;-1.60;99.90;;;;;;5073652;28;20049;-69
2023/12/02 05:01:16;;;;;;;28.15;16.13;;;-1.60;99.90;;;;;;5073171;28;20044;-69
2023/12/02 05:03:43;;;;;;;30.67;17.15;;;-1.60;99.90;;;;;;5072198;28;20086;-70
2023/12/02 05:06:14;;;;;;;28.08;16.45;;;-1.60;99.90;;;;;;5072737;28;20056;-70
2023/12/02 05:08:41;;;;;;;28.63;15.98;;;-1.60;99.90;;;;;;5072321;28;20048;-70
2023/12/02 05:11:09;;;;;;;28.30;16.23;;;-1.60;99.90;;;;;;5073731;28;20514;-71
2023/12/02 05:13:38;;;;;;;27.75;15.52;;;-1.60;99.90;;;;;;5091853;28;20040;-70
2023/12/02 05:16:06;;;;;;;30.48;16.98;;;-1.30;99.90;;;;;;5090990;28;20082;-70
2023/12/02 05:18:33;;;;;;;27.27;17.40;;;-1.60;99.90;;;;;;5091686;28;20437;-70
2023/12/02 05:21:00;;;;;;;27.80;16.60;;;-1.60;99.90;;;;;;5072247;28;20492;-70
2023/12/02 05:23:27;;;;;;;30.33;16.73;;;-0.70;99.90;;;;;;5071761;28;20052;-70
2023/12/02 05:25:54;;;;;;;28.88;17.30;;;-1.60;99.90;;;;;;5072528;28;20056;-69
2023/12/02 05:28:22;;;;;;;28.95;16.50;;;-1.60;99.90;;;;;;5072489;28;20052;-70
2023/12/02 05:30:51;;;;;;;33.00;17.52;;;-1.60;99.90;;;;;;5071593;28;20052;-69
2023/12/02 05:33:18;;;;;;;27.35;16.13;;;-1.60;99.90;;;;;;5072114;28;20131;-70
2023/12/02 05:35:45;;;;;;;28.30;16.75;;;-1.60;99.90;;;;;;5072229;28;20053;-69
2023/12/02 05:38:12;;;;;;;28.48;16.67;;;-1.70;99.90;;;;;;5071780;28;20048;-70
2023/12/02 05:40:38;;;;;;;32.50;18.25;;;-1.60;99.90;;;;;;5072206;28;20048;-69
2023/12/02 05:43:05;;;;;;;31.50;17.33;;;-1.70;99.90;;;;;;5071948;28;20048;-70
2023/12/02 05:45:32;;;;;;;27.65;16.45;;;-1.70;99.90;;;;;;5071828;28;20052;-71
2023/12/02 05:48:00;;;;;;;34.45;17.55;;;-1.70;99.90;;;;;;5071853;28;20048;-70
2023/12/02 05:50:27;;;;;;;27.73;16.50;;;-1.70;99.90;;;;;;5072208;28;20107;-69
2023/12/02 05:52:54;;;;;;;28.73;16.02;;;-1.80;99.90;;;;;;5071339;28;20400;-69
2023/12/02 05:55:21;;;;;;;28.77;16.50;;;-1.70;99.90;;;;;;5072032;28;20048;-69
2023/12/02 05:57:48;;;;;;;28.60;16.92;;;-1.80;99.90;;;;;;5071977;28;20086;-70
2023/12/02 06:00:17;;;;;;;31.83;17.60;;;-1.80;99.90;;;;;;5071373;28;20049;-69
2023/12/02 06:02:43;;;;;;;28.25;16.85;;;-1.80;99.90;;;;;;5088707;28;20083;-70
2023/12/02 06:05:12;;;;;;;30.83;17.05;;;-1.80;99.90;;;;;;5091481;28;20496;-69
2023/12/02 06:07:39;;;;;;;27.00;15.68;;;-1.80;99.90;;;;;;5091900;28;20127;-69
2023/12/02 06:10:08;;;;;;;31.42;18.27;;;-1.80;99.90;;;;;;5090484;28;20056;-68
2023/12/02 06:12:35;;;;;;;30.38;18.25;;;-1.80;99.90;;;;;;5090168;28;20125;-70
2023/12/02 06:15:02;;;;;;;27.30;16.60;;;-1.80;99.90;;;;;;5090850;28;20496;-70
2023/12/02 06:17:29;;;;;;;27.60;15.80;;;-1.80;99.90;;;;;;5090506;28;20078;-69
2023/12/02 06:19:56;;;;;;;27.90;16.70;;;-1.80;99.90;;;;;;5072821;28;20404;-69
2023/12/02 06:22:25;;;;;;;31.27;17.40;;;-1.80;99.90;;;;;;5074526;28;20060;-69
2023/12/02 06:24:52;;;;;;;27.40;16.67;;;-1.80;99.90;;;;;;5075004;28;20115;-69
2023/12/02 06:27:19;;;;;;;26.52;16.58;;;-1.80;99.90;;;;;;5073977;28;20491;-69
2023/12/02 06:29:46;;;;;;;30.98;16.15;;;-1.80;99.90;;;;;;5092778;28;20548;-69
2023/12/02 06:32:13;;;;;;;29.48;17.27;;;-1.80;99.90;;;;;;5074038;28;20048;-69
2023/12/02 06:34:40;;;;;;;28.75;16.45;;;-1.90;99.90;;;;;;5074321;28;20044;-68
2023/12/02 06:37:07;;;;;;;34.38;18.25;;;-1.80;99.90;;;;;;5074435;28;20043;-68
2023/12/02 06:39:35;;;;;;;27.50;16.30;;;-1.80;99.90;;;;;;5074419;28;20093;-69
2023/12/02 06:42:02;;;;;;;30.77;17.20;;;-1.80;99.90;;;;;;5074135;28;20525;-69
2023/12/02 06:44:29;;;;;;;28.27;16.55;;;-1.80;99.90;;;;;;5074474;28;20488;-69
2023/12/02 06:46:56;;;;;;;32.28;16.40;;;-1.80;99.90;;;;;;5092569;28;20496;-69
2023/12/02 06:49:23;;;;;;;29.98;16.85;;;-1.80;99.90;;;;;;5074274;28;20101;-69
2023/12/02 06:51:50;;;;;;;29.25;17.23;;;-1.80;99.90;;;;;;5074527;28;20048;-69
2023/12/02 06:54:17;;;;;;;28.83;16.73;;;-1.80;99.90;;;;;;5074045;28;20055;-71
2023/12/02 06:56:45;;;;;;;32.03;17.67;;;-1.80;99.90;;;;;;5092651;28;20097;-70
2023/12/02 06:59:13;;;;;;;29.92;17.52;;;-1.80;99.90;;;;;;5074635;28;20063;-70
2023/12/02 07:01:40;;;;;;;31.95;17.42;;;-1.70;99.90;;;;;;5091051;28;20120;-69
2023/12/02 07:04:08;;;;;;;33.85;17.73;;;-1.80;99.90;;;;;;5089811;28;20132;-69
2023/12/02 07:06:34;;;;;;;28.65;16.38;;;-1.70;99.90;;;;;;5078146;28;20101;-70
2023/12/02 07:09:01;;;;;;;27.88;17.50;;;-1.60;99.90;;;;;;5080316;28;20059;-70
2023/12/02 07:11:29;;;;;;;29.13;17.60;;;-1.60;99.90;;;;;;5099527;28;20039;-70
2023/12/02 07:13:57;;;;;;;28.58;16.42;;;-1.60;99.90;;;;;;5079146;28;20062;-69
2023/12/02 07:16:24;;;;;;;34.47;17.50;;;-1.60;99.90;;;;;;5077692;28;20435;-69
2023/12/02 07:18:51;;;;;;;30.58;17.20;;;-0.90;99.90;;;;;;5073746;28;20097;-69
2023/12/02 07:21:18;;;;;;;29.67;17.23;;;-1.00;99.90;;;;;;5082541;28;20105;-69
2023/12/02 07:23:45;;;;;;;29.00;17.00;;;-1.50;99.90;;;;;;5110651;28;20047;-69
2023/12/02 07:26:12;;;;;;;27.33;15.80;;;-1.50;99.90;;;;;;5092551;28;20144;-69
2023/12/02 07:28:39;;;;;;;31.80;17.65;;;-1.50;99.90;;;;;;5090861;28;20059;-69
2023/12/02 07:31:13;;;;;;;29.50;16.67;;;-1.50;99.90;;;;;;5091075;28;20101;-69
2023/12/02 07:33:40;;;;;;;33.15;17.80;;;-1.50;99.90;;;;;;5080286;28;20060;-69
2023/12/02 07:36:07;;;;;;;32.88;17.10;;;-1.60;99.90;;;;;;5092764;28;20437;-69
2023/12/02 07:38:34;;;;;;;27.20;15.75;;;-1.50;99.90;;;;;;5092082;28;20096;-69
2023/12/02 07:41:01;;;;;;;28.75;16.92;;;-1.50;99.90;;;;;;5110960;28;20052;-69
2023/12/02 07:43:28;;;;;;;28.42;17.15;;;-1.50;99.90;;;;;;5112692;28;20093;-70
2023/12/02 07:45:55;;;;;;;32.13;16.88;;;-1.50;99.90;;;;;;5093742;28;20048;-68
2023/12/02 07:48:23;;;;;;;27.52;15.90;;;-1.50;99.90;;;;;;5104392;28;20412;-69
2023/12/02 07:50:50;;;;;;;32.28;16.80;;;-1.50;99.90;;;;;;5076917;28;20093;-69
2023/12/02 07:53:17;;;;;;;26.80;16.35;;;-1.50;99.90;;;;;;5095309;28;20109;-70
2023/12/02 07:55:44;;;;;;;30.67;16.60;;;-1.50;99.90;;;;;;5095245;28;20052;-69
2023/12/02 07:58:10;;;;;;;32.97;17.45;;;-1.50;99.90;;;;;;5103212;28;20113;-70
2023/12/02 08:00:37;;;;;;;27.02;14.63;;;-1.50;99.90;;;;;;5078149;28;20059;-69
2023/12/02 08:03:04;;;;;;;26.77;15.88;;;-1.40;99.90;;;;;;5091372;28;20075;-70
2023/12/02 08:05:32;;;;;;;30.77;16.33;;;-1.40;99.90;;;;;;5094778;28;20089;-70
2023/12/02 08:07:59;;;;;;;30.38;15.95;;;-1.40;99.90;;;;;;5078519;28;20051;-69
2023/12/02 08:10:26;;;;;;;30.63;16.98;;;-1.40;99.90;;;;;;5076861;28;20060;-69
2023/12/02 08:12:53;;;;;;;28.90;16.98;;;-1.30;99.90;;;;;;5076125;28;20488;-69
2023/12/02 08:15:20;;;;;;;25.60;15.63;;;-1.30;99.90;;;;;;5094929;28;20048;-70
2023/12/02 08:17:47;;;;;;;28.70;17.33;;;-1.20;99.90;;;;;;5095746;28;20047;-70
2023/12/02 08:20:14;;;;;;;32.90;16.15;;;-1.20;99.90;;;;;;5093623;28;20087;-70
2023/12/02 08:22:42;;;;;;;30.67;16.98;;;-1.10;99.90;;;;;;5104341;28;20081;-71
2023/12/02 08:25:09;;;;;;;26.05;15.68;;;-1.10;99.90;;;;;;5081259;28;20402;-69
2023/12/02 08:27:36;;;;;;;30.02;16.42;;;-1.00;99.90;;;;;;5099343;28;20542;-69
2023/12/02 08:30:05;;;;;;;28.35;15.88;;;-0.90;99.90;;;;;;5083186;28;20052;-70
2023/12/02 08:32:32;;;;;;;26.48;15.23;;;-0.90;99.90;;;;;;5087464;28;20555;-69
2023/12/02 08:34:58;;;;;;;25.58;16.05;;;-0.80;99.90;;;;;;5081629;28;20101;-70
2023/12/02 08:37:26;;;;;;;28.58;16.15;;;-0.70;99.90;;;;;;5087737;28;20096;-70
2023/12/02 08:39:54;;;;;;;27.75;16.27;;;-0.70;99.90;;;;;;5078660;28;20086;-70
2023/12/02 08:42:21;;;;;;;29.10;17.38;;;-0.60;99.90;;;;;;5081015;28;20044;-70
2023/12/02 08:44:48;;;;;;;28.50;16.65;;;-0.50;99.90;;;;;;5082453;28;20036;-69
2023/12/02 08:47:14;;;;;;;26.05;15.60;;;-0.50;99.90;;;;;;5087098;28;20048;-68
2023/12/02 08:49:41;;;;;;;28.98;17.15;;;-0.50;99.90;;;;;;5078476;28;20101;-69
2023/12/02 08:52:08;;;;;;;28.88;15.90;;;-0.50;99.90;;;;;;5077257;28;20059;-69
2023/12/02 08:54:35;;;;;;;27.65;16.50;;;-0.40;99.90;;;;;;5099487;28;20048;-69
2023/12/02 08:57:03;;;;;;;30.02;16.00;;;-0.40;99.90;;;;;;5077571;28;20055;-69
2023/12/02 08:59:30;;;;;;;30.10;16.33;;;-0.30;99.90;;;;;;5076586;28;20052;-69
2023/12/02 09:01:57;;;;;;;24.92;16.45;;;-0.20;99.90;;;;;;5077869;28;20044;-69
2023/12/02 09:04:24;;;;;;;27.40;16.42;;;-0.20;99.90;;;;;;5075509;28;20052;-69
2023/12/02 09:06:51;;;;;;;30.17;17.23;;;0.00;99.90;;;;;;5096221;28;21342;-69
2023/12/02 09:09:18;;;;;;;30.85;18.13;;;-0.20;99.90;;;;;;5075306;28;20043;-69
2023/12/02 09:11:45;;;;;;;27.27;15.95;;;-0.20;99.90;;;;;;5078953;28;20055;-70
2023/12/02 09:14:13;;;;;;;28.95;16.00;;;-0.10;99.90;;;;;;5080838;28;20043;-70
2023/12/02 09:16:46;;;;;;;28.42;17.17;;;-0.10;99.90;;;;;;5081915;28;20056;-69
2023/12/02 09:20:00;;;;;;;27.80;16.92;;;0.00;99.90;;;;;;5076026;28;20075;-69
2023/12/02 09:22:47;;;;;;;31.30;16.98;;;0.10;99.90;;;;;;5076628;28;20048;-69
2023/12/02 09:25:26;;;;;;;26.75;16.13;;;0.20;99.90;;;;;;5076783;28;20044;-70
2023/12/02 09:28:21;;;;;;;29.80;16.02;;;0.20;99.90;;;;;;5078405;28;20517;-69
2023/12/02 09:30:56;;;;;;;25.55;15.95;;;0.30;99.90;;;;;;5077576;28;20059;-70
2023/12/02 09:33:23;;;;;;;24.50;15.63;;;0.40;99.90;;;;;;5076537;28;20469;-70
2023/12/02 09:35:54;;;;;;;25.92;14.40;;;0.50;99.90;;;;;;5075670;28;20047;-70
2023/12/02 09:38:22;;;;;;;31.58;16.02;;;0.60;99.90;;;;;;5077035;28;20139;-70
2023/12/02 09:41:15;;;;;;;25.38;15.25;;;0.70;99.90;;;;;;5080261;28;20047;-70
2023/12/02 09:43:54;;;;;;;24.42;15.43;;;0.80;99.90;;;;;;5077150;28;20056;-69
2023/12/02 09:46:29;;;;;;;24.98;15.38;;;1.00;99.90;;;;;;5075807;28;20097;-70
2023/12/02 09:49:18;;;;;;;24.30;14.80;;;1.00;99.90;;;;;;5081410;28;20048;-70
2023/12/02 09:52:07;;;;;;;24.92;14.77;;;1.00;99.90;;;;;;5076291;28;20058;-70
2023/12/02 09:54:44;;;;;;;24.67;14.75;;;1.00;99.90;;;;;;5076736;28;20471;-70
2023/12/02 09:57:17;;;;;;;25.77;15.00;;;1.90;99.90;;;;;;5078303;28;20415;-70
2023/12/02 09:59:53;;;;;;;25.17;14.77;;;1.60;99.90;;;;;;5078368;28;20052;-70
2023/12/02 10:02:33;;;;;;;20.60;13.93;;;1.30;99.90;;;;;;5096569;28;20036;-70
2023/12/02 10:05:07;;;;;;;24.02;14.07;;;1.30;99.90;;;;;;5078240;28;20147;-71
2023/12/02 10:07:46;;;;;;;22.58;14.65;;;1.40;99.90;;;;;;5078582;28;20048;-71
2023/12/02 10:10:17;;;;;;;26.42;14.65;;;1.50;99.90;;;;;;5075795;28;20048;-71
2023/12/02 10:12:55;;;;;;;24.42;15.27;;;1.70;99.90;;;;;;5076194;28;20446;-71
2023/12/02 10:15:26;;;;;;;22.55;14.02;;;1.80;99.90;;;;;;5081783;28;20109;-71
2023/12/02 10:18:01;;;;;;;22.33;13.57;;;1.90;99.90;;;;;;5076979;28;20051;-71
2023/12/02 10:20:29;;;;;;;23.05;14.63;;;2.00;99.90;;;;;;5077841;28;20127;-70
2023/12/02 10:23:00;;;;;;;21.92;14.50;;;2.10;99.90;;;;;;5087723;28;20048;-70
2023/12/02 10:25:34;;;;;;;20.10;12.95;;;2.60;99.90;;;;;;5087494;28;20055;-70
2023/12/02 10:28:11;;;;;;;25.13;15.27;;;2.40;99.90;;;;;;5090401;28;20468;-70
2023/12/02 10:30:45;;;;;;;23.45;13.20;;;2.50;99.90;;;;;;5089738;28;20089;-70
2023/12/02 10:33:26;;;;;;;22.58;14.50;;;2.50;99.90;;;;;;5089689;28;20060;-70
2023/12/02 10:35:57;;;;;;;24.38;13.32;;;2.50;99.90;;;;;;5071104;28;20550;-70
2023/12/02 10:38:32;;;;;;;18.80;12.55;;;2.70;99.90;;;;;;5071405;28;20131;-72
2023/12/02 10:41:12;;;;;;;20.50;12.90;;;2.80;99.90;;;;;;5070858;28;20109;-70
2023/12/02 10:43:40;;;;;;;22.90;12.48;;;3.20;99.90;;;;;;5089354;28;20388;-71
2023/12/02 10:46:08;;;;;;;18.60;12.32;;;4.40;99.90;;;;;;5089983;28;20147;-71
2023/12/02 10:48:39;;;;;;;16.77;11.55;;;5.90;99.90;;;;;;5091058;28;20041;-71
2023/12/02 10:51:08;;;;;;;18.60;11.55;;;7.10;99.90;;;;;;5089763;28;20050;-71
2023/12/02 10:53:37;;;;;;;18.27;11.68;;;8.10;99.90;;;;;;5089516;28;20047;-71
2023/12/02 10:56:12;;;;;;;17.63;11.13;;;8.30;99.90;;;;;;5090176;28;20048;-70
2023/12/02 10:58:42;;;;;;;15.13;10.02;;;8.40;99.90;;;;;;5091488;28;20504;-70
2023/12/02 11:01:11;;;;;;;14.48;10.40;;;8.00;99.90;;;;;;5089799;28;20044;-70
2023/12/02 11:03:49;;;;;;;14.48;10.93;;;7.40;99.90;;;;;;5090185;28;20055;-71
2023/12/02 11:06:26;;;;;;;13.43;9.82;;;6.70;99.90;;;;;;5088076;28;20545;-71
2023/12/02 11:08:55;;;;;;;15.60;9.45;;;6.30;99.90;;;;;;5087430;28;20052;-71
2023/12/02 11:11:39;;;;;;;14.15;9.35;;;6.00;99.90;;;;;;5089809;28;20044;-71
2023/12/02 11:14:13;;;;;;;15.43;9.38;;;5.50;99.90;;;;;;5089852;28;20055;-70
2023/12/02 11:16:45;;;;;;;16.30;10.52;;;5.10;99.90;;;;;;5089592;28;20060;-70
2023/12/02 11:19:24;;;;;;;20.25;12.52;;;4.90;99.90;;;;;;5094241;28;20101;-70
2023/12/02 11:22:15;;;;;;;17.77;11.73;;;4.70;99.90;;;;;;5093026;28;20051;-70
2023/12/02 11:24:55;;;;;;;16.13;10.98;;;4.40;99.90;;;;;;5093359;28;20040;-70
2023/12/02 11:27:34;;;;;;;14.75;9.55;;;4.20;99.90;;;;;;5093884;28;20055;-71
2023/12/02 11:30:15;;;;;;;15.43;10.55;;;4.20;99.90;;;;;;5093509;28;20454;-70
2023/12/02 11:32:53;;;;;;;17.08;11.55;;;4.10;99.90;;;;;;5093891;28;20090;-70
2023/12/02 11:35:32;;;;;;;16.00;10.57;;;3.80;99.90;;;;;;5093430;28;20046;-71
2023/12/02 11:38:06;;;;;;;18.20;11.95;;;3.70;99.90;;;;;;5093133;28;20557;-71
2023/12/02 11:40:47;;;;;;;16.85;11.45;;;3.40;99.90;;;;;;5093647;28;20044;-71
2023/12/02 11:43:30;;;;;;;14.68;10.70;;;3.40;99.90;;;;;;5093288;28;20381;-71
2023/12/02 11:46:01;;;;;;;16.05;10.85;;;3.40;99.90;;;;;;5074004;28;20049;-69
2023/12/02 11:48:40;;;;;;;15.82;10.95;;;3.40;99.90;;;;;;5074614;28;20158;-71
2023/12/02 11:51:29;;;;;;;15.45;10.93;;;3.40;99.90;;;;;;5092223;28;20143;-70
2023/12/02 11:54:09;;;;;;;14.93;9.88;;;3.60;99.90;;;;;;5072413;28;20106;-71
2023/12/02 11:56:39;;;;;;;14.52;10.10;;;3.30;99.90;;;;;;5072813;28;20096;-71
2023/12/02 11:59:15;;;;;;;16.17;10.70;;;3.30;99.90;;;;;;5073469;28;20094;-71
2023/12/02 12:01:58;;;;;;;18.05;10.40;;;3.30;99.90;;;;;;5074292;28;20040;-71
2023/12/02 12:04:41;;;;;;;17.45;11.40;;;3.20;99.90;;;;;;5090905;28;20048;-70
2023/12/02 12:07:19;;;;;;;15.82;10.20;;;3.10;99.90;;;;;;5079140;28;20126;-70
2023/12/02 12:09:58;;;;;;;15.95;9.88;;;3.10;99.90;;;;;;5074948;28;20045;-70
2023/12/02 12:12:28;;;;;;;16.35;10.20;;;3.10;99.90;;;;;;5073116;28;20044;-70
2023/12/02 12:14:56;;;;;;;17.67;9.82;;;3.00;99.90;;;;;;5073640;28;20052;-70
2023/12/02 12:17:23;;;;;;;18.58;10.95;;;3.00;99.90;;;;;;5073198;28;20055;-70
2023/12/02 12:19:50;;;;;;;14.38;9.55;;;3.00;99.90;;;;;;5078510;28;20072;-69
2023/12/02 12:22:19;;;;;;;16.38;10.55;;;3.10;99.90;;;;;;5079826;28;20040;-71
2023/12/02 12:24:46;;;;;;;13.65;9.10;;;3.10;99.90;;;;;;5095955;28;20040;-70
2023/12/02 12:27:13;;;;;;;19.05;9.63;;;3.10;99.90;;;;;;5078344;28;20051;-71
2023/12/02 12:29:52;;;;;;;12.73;8.88;;;3.00;99.90;;;;;;5076502;28;20048;-70
2023/12/02 12:32:18;;;;;;;14.65;9.00;;;3.10;99.90;;;;;;5108049;28;20070;-71
2023/12/02 12:34:46;;;;;;;13.02;8.70;;;3.20;99.90;;;;;;5078251;28;20055;-70
2023/12/02 12:37:16;;;;;;;13.60;8.32;;;3.10;99.90;;;;;;5089380;28;20054;-70
2023/12/02 12:39:45;;;;;;;13.98;8.48;;;3.20;99.90;;;;;;5077502;28;20087;-70
2023/12/02 12:42:13;;;;;;;13.45;8.15;;;3.20;99.90;;;;;;5098136;28;20048;-69